createdAt,value
2023-01-13T00:00:46.305Z,981.23
2023-01-13T00:01:46.254Z,981.35
2023-01-13T00:02:46.292Z,981.26
2023-01-13T00:03:46.246Z,981.24
2023-01-13T00:04:46.245Z,981.20
2023-01-13T00:05:46.234Z,981.15
2023-01-13T00:06:46.214Z,981.24
2023-01-13T00:07:46.194Z,981.23
2023-01-13T00:08:46.184Z,981.25
2023-01-13T00:09:46.193Z,981.12
2023-01-13T00:10:46.165Z,981.14
2023-01-13T00:11:46.166Z,981.16
2023-01-13T00:12:46.178Z,981.16
2023-01-13T00:13:46.134Z,981.13
2023-01-13T00:14:46.137Z,981.12
2023-01-13T00:15:46.202Z,981.09
2023-01-13T00:16:46.115Z,981.04
2023-01-13T00:17:46.104Z,981.00
2023-01-13T00:18:46.085Z,981.09
2023-01-13T00:19:46.078Z,981.10
2023-01-13T00:20:46.065Z,981.04
2023-01-13T00:21:46.075Z,981.04
2023-01-13T00:22:46.037Z,981.03
2023-01-13T00:23:46.038Z,981.05
2023-01-13T00:24:46.026Z,980.98
2023-01-13T00:25:46.018Z,981.13
2023-01-13T00:26:46.008Z,981.05
2023-01-13T00:27:45.998Z,981.08
2023-01-13T00:28:45.983Z,981.07
2023-01-13T00:29:45.976Z,981.02
2023-01-13T00:30:45.967Z,980.99
2023-01-13T00:31:45.941Z,981.02
2023-01-13T00:32:45.956Z,980.88
2023-01-13T00:33:45.939Z,980.91
2023-01-13T00:34:45.910Z,980.90
2023-01-13T00:35:45.911Z,980.94
2023-01-13T00:36:45.900Z,981.05
2023-01-13T00:37:45.878Z,980.85
2023-01-13T00:38:45.885Z,980.90
2023-01-13T00:39:45.873Z,980.80
2023-01-13T00:40:45.860Z,980.86
2023-01-13T00:41:45.829Z,980.80
2023-01-13T00:42:45.819Z,980.92
2023-01-13T00:43:45.844Z,980.91
2023-01-13T00:44:45.799Z,980.84
2023-01-13T00:45:45.799Z,980.91
2023-01-13T00:46:45.859Z,980.83
2023-01-13T00:47:45.786Z,980.85
2023-01-13T00:48:45.750Z,980.75
2023-01-13T00:49:45.760Z,980.83
2023-01-13T00:50:45.751Z,980.86
2023-01-13T00:51:45.754Z,980.86
2023-01-13T00:52:45.731Z,980.87
2023-01-13T00:53:45.713Z,980.84
2023-01-13T00:54:45.713Z,980.76
2023-01-13T00:55:45.693Z,980.72
2023-01-13T00:56:45.705Z,980.74
2023-01-13T00:57:45.660Z,980.70
2023-01-13T00:58:45.651Z,980.65
2023-01-13T00:59:45.654Z,980.75
2023-01-13T01:00:45.709Z,980.76
2023-01-13T01:01:45.868Z,980.78
2023-01-13T01:02:45.642Z,980.76
2023-01-13T01:03:45.603Z,980.75
2023-01-13T01:04:45.605Z,980.65
2023-01-13T01:05:45.582Z,980.72
2023-01-13T01:06:45.585Z,980.61
2023-01-13T01:07:45.563Z,980.69
2023-01-13T01:08:45.558Z,980.51
2023-01-13T01:09:45.562Z,980.61
2023-01-13T01:10:46.472Z,980.56
2023-01-13T01:11:45.535Z,980.55
2023-01-13T01:12:45.516Z,980.57
2023-01-13T01:13:45.505Z,980.59
2023-01-13T01:14:45.502Z,980.64
2023-01-13T01:15:45.536Z,980.66
2023-01-13T01:16:45.477Z,980.56
2023-01-13T01:17:45.467Z,980.55
2023-01-13T01:18:45.461Z,980.61
2023-01-13T01:19:45.458Z,980.49
2023-01-13T01:20:45.425Z,980.48
2023-01-13T01:21:45.417Z,980.58
2023-01-13T01:22:45.425Z,980.46
2023-01-13T01:23:45.393Z,980.52
2023-01-13T01:24:45.408Z,980.54
2023-01-13T01:25:45.379Z,980.51
2023-01-13T01:26:45.360Z,980.53
2023-01-13T01:27:45.361Z,980.61
2023-01-13T01:28:45.331Z,980.52
2023-01-13T01:29:45.328Z,980.58
2023-01-13T01:30:45.346Z,980.56
2023-01-13T01:31:45.345Z,980.65
2023-01-13T01:32:45.310Z,980.59
2023-01-13T01:33:45.289Z,980.59
2023-01-13T01:34:45.270Z,980.54
2023-01-13T01:35:45.288Z,980.45
2023-01-13T01:36:45.251Z,980.59
2023-01-13T01:37:45.240Z,980.52
2023-01-13T01:38:45.227Z,980.43
2023-01-13T01:39:45.227Z,980.52
2023-01-13T01:40:45.237Z,980.57
2023-01-13T01:41:45.209Z,980.56
2023-01-13T01:42:45.181Z,980.53
2023-01-13T01:43:45.199Z,980.52
2023-01-13T01:44:45.170Z,980.53
2023-01-13T01:45:45.168Z,980.55
2023-01-13T01:46:45.139Z,980.52
2023-01-13T01:47:45.154Z,980.59
2023-01-13T01:48:45.139Z,980.51
2023-01-13T01:49:45.136Z,980.58
2023-01-13T01:50:45.105Z,980.46
2023-01-13T01:51:45.104Z,980.48
2023-01-13T01:52:45.083Z,980.44
2023-01-13T01:53:45.090Z,980.42
2023-01-13T01:54:45.071Z,980.43
2023-01-13T01:55:45.043Z,980.37
2023-01-13T01:56:45.039Z,980.40
2023-01-13T01:57:45.034Z,980.44
2023-01-13T01:58:45.024Z,980.38
2023-01-13T01:59:45.026Z,980.42
2023-01-13T02:00:45.046Z,980.42
2023-01-13T02:01:45.135Z,980.49
2023-01-13T02:02:45.028Z,980.42
2023-01-13T02:03:44.964Z,980.37
2023-01-13T02:04:44.964Z,980.40
2023-01-13T02:05:44.949Z,980.40
2023-01-13T02:06:44.946Z,980.42
2023-01-13T02:07:44.942Z,980.34
2023-01-13T02:08:44.925Z,980.40
2023-01-13T02:09:44.921Z,980.42
2023-01-13T02:10:44.885Z,980.37
2023-01-13T02:11:44.893Z,980.30
2023-01-13T02:12:44.877Z,980.40
2023-01-13T02:13:44.864Z,980.39
2023-01-13T02:14:44.854Z,980.35
2023-01-13T02:15:44.845Z,980.28
2023-01-13T02:16:44.861Z,980.41
2023-01-13T02:17:44.826Z,980.33
2023-01-13T02:18:44.827Z,980.29
2023-01-13T02:19:44.813Z,980.41
2023-01-13T02:20:44.786Z,980.40
2023-01-13T02:21:44.785Z,980.39
2023-01-13T02:22:44.782Z,980.32
2023-01-13T02:23:44.767Z,980.45
2023-01-13T02:24:44.737Z,980.21
2023-01-13T02:25:44.736Z,980.20
2023-01-13T02:26:44.716Z,980.18
2023-01-13T02:27:44.706Z,980.28
2023-01-13T02:28:44.726Z,980.22
2023-01-13T02:29:44.691Z,980.21
2023-01-13T02:30:44.683Z,980.28
2023-01-13T02:31:44.750Z,980.25
2023-01-13T02:32:44.691Z,980.16
2023-01-13T02:33:44.671Z,980.21
2023-01-13T02:34:44.641Z,980.15
2023-01-13T02:35:44.640Z,980.21
2023-01-13T02:36:44.609Z,980.07
2023-01-13T02:37:44.615Z,980.15
2023-01-13T02:38:44.610Z,980.12
2023-01-13T02:39:44.594Z,980.14
2023-01-13T02:40:44.579Z,980.10
2023-01-13T02:41:44.564Z,980.06
2023-01-13T02:42:44.556Z,980.06
2023-01-13T02:43:44.565Z,979.99
2023-01-13T02:44:44.556Z,980.05
2023-01-13T02:45:44.601Z,980.04
2023-01-13T02:46:44.523Z,980.05
2023-01-13T02:47:44.510Z,980.04
2023-01-13T02:48:44.518Z,979.99
2023-01-13T02:49:44.484Z,979.98
2023-01-13T02:50:44.475Z,979.96
2023-01-13T02:51:44.462Z,979.85
2023-01-13T02:52:44.442Z,979.92
2023-01-13T02:53:44.454Z,979.96
2023-01-13T02:54:44.442Z,979.89
2023-01-13T02:55:44.428Z,979.92
2023-01-13T02:56:44.417Z,980.04
2023-01-13T02:57:44.392Z,979.90
2023-01-13T02:58:44.390Z,979.90
2023-01-13T02:59:44.320Z,979.94
2023-01-13T03:00:44.348Z,979.87
2023-01-13T03:01:44.312Z,979.82
2023-01-13T03:02:44.328Z,979.93
2023-01-13T03:03:44.271Z,980.09
2023-01-13T03:04:44.241Z,979.94
2023-01-13T03:05:44.251Z,979.80
2023-01-13T03:06:44.221Z,979.90
2023-01-13T03:07:44.212Z,980.09
2023-01-13T03:08:44.214Z,979.93
2023-01-13T03:09:44.193Z,979.91
2023-01-13T03:10:44.165Z,979.91
2023-01-13T03:11:44.170Z,979.91
2023-01-13T03:12:44.155Z,979.84
2023-01-13T03:13:44.172Z,979.84
2023-01-13T03:14:44.148Z,979.93
2023-01-13T03:15:44.123Z,979.90
2023-01-13T03:16:44.113Z,979.85
2023-01-13T03:17:44.106Z,979.90
2023-01-13T03:18:44.091Z,979.92
2023-01-13T03:19:44.081Z,979.99
2023-01-13T03:20:44.058Z,979.78
2023-01-13T03:21:44.064Z,979.89
2023-01-13T03:22:44.064Z,979.98
2023-01-13T03:23:44.041Z,979.98
2023-01-13T03:24:44.045Z,979.86
2023-01-13T03:25:44.028Z,979.92
2023-01-13T03:26:44.013Z,980.12
2023-01-13T03:27:43.995Z,979.86
2023-01-13T03:28:44.011Z,979.98
2023-01-13T03:29:43.996Z,979.80
2023-01-13T03:30:43.964Z,979.76
2023-01-13T03:31:43.975Z,979.81
2023-01-13T03:32:43.945Z,979.78
2023-01-13T03:33:43.926Z,979.78
2023-01-13T03:34:43.916Z,979.69
2023-01-13T03:35:43.929Z,979.74
2023-01-13T03:36:43.902Z,979.76
2023-01-13T03:37:43.886Z,979.73
2023-01-13T03:38:43.868Z,979.77
2023-01-13T03:39:43.868Z,979.72
2023-01-13T03:40:43.867Z,979.74
2023-01-13T03:41:43.837Z,980.04
2023-01-13T03:42:43.826Z,979.64
2023-01-13T03:43:43.818Z,979.59
2023-01-13T03:44:43.811Z,979.75
2023-01-13T03:45:43.861Z,979.77
2023-01-13T03:46:43.789Z,979.73
2023-01-13T03:47:43.793Z,979.51
2023-01-13T03:48:43.773Z,979.61
2023-01-13T03:49:43.779Z,979.49
2023-01-13T03:50:43.748Z,979.52
2023-01-13T03:51:43.747Z,979.56
2023-01-13T03:52:43.724Z,980.08
2023-01-13T03:53:43.711Z,979.60
2023-01-13T03:54:43.720Z,979.51
2023-01-13T03:55:43.700Z,979.41
2023-01-13T03:56:43.687Z,979.43
2023-01-13T03:57:43.705Z,979.44
2023-01-13T03:58:43.680Z,979.49
2023-01-13T03:59:43.663Z,979.52
2023-01-13T04:00:43.631Z,979.52
2023-01-13T04:01:43.763Z,979.51
2023-01-13T04:02:43.621Z,979.52
2023-01-13T04:03:43.648Z,979.59
2023-01-13T04:04:43.606Z,979.53
2023-01-13T04:05:43.608Z,979.39
2023-01-13T04:06:43.572Z,979.45
2023-01-13T04:07:43.572Z,979.70
2023-01-13T04:08:43.583Z,979.39
2023-01-13T04:09:43.555Z,979.45
2023-01-13T04:10:43.542Z,979.34
2023-01-13T04:11:43.553Z,979.34
2023-01-13T04:12:43.518Z,979.31
2023-01-13T04:13:43.506Z,979.38
2023-01-13T04:14:43.493Z,979.27
2023-01-13T04:15:43.549Z,979.26
2023-01-13T04:16:43.480Z,979.20
2023-01-13T04:17:43.475Z,979.13
2023-01-13T04:18:43.445Z,979.22
2023-01-13T04:19:43.433Z,979.19
2023-01-13T04:20:43.480Z,979.15
2023-01-13T04:21:43.426Z,979.20
2023-01-13T04:22:43.431Z,979.27
2023-01-13T04:23:43.393Z,979.31
2023-01-13T04:24:43.385Z,979.25
2023-01-13T04:25:43.398Z,979.23
2023-01-13T04:26:43.364Z,979.19
2023-01-13T04:27:43.379Z,979.26
2023-01-13T04:28:43.377Z,979.29
2023-01-13T04:29:43.337Z,979.30
2023-01-13T04:30:43.379Z,979.28
2023-01-13T04:31:43.316Z,979.34
2023-01-13T04:32:43.324Z,979.29
2023-01-13T04:33:43.285Z,979.38
2023-01-13T04:34:43.274Z,979.24
2023-01-13T04:35:43.272Z,979.33
2023-01-13T04:36:43.271Z,979.42
2023-01-13T04:37:43.264Z,979.26
2023-01-13T04:38:43.253Z,979.47
2023-01-13T04:39:43.256Z,979.45
2023-01-13T04:40:43.216Z,979.25
2023-01-13T04:41:43.227Z,979.38
2023-01-13T04:42:43.201Z,979.30
2023-01-13T04:43:43.191Z,979.17
2023-01-13T04:44:43.169Z,979.15
2023-01-13T04:45:43.172Z,979.18
2023-01-13T04:46:43.169Z,979.21
2023-01-13T04:47:43.149Z,979.18
2023-01-13T04:48:43.131Z,979.17
2023-01-13T04:49:43.128Z,979.10
2023-01-13T04:50:43.116Z,979.14
2023-01-13T04:51:43.101Z,979.15
2023-01-13T04:52:43.099Z,979.31
2023-01-13T04:53:43.104Z,979.33
2023-01-13T04:54:43.091Z,979.22
2023-01-13T04:55:43.066Z,979.30
2023-01-13T04:56:43.055Z,979.18
2023-01-13T04:57:43.043Z,979.21
2023-01-13T04:58:43.030Z,979.18
2023-01-13T04:59:43.035Z,979.20
2023-01-13T05:00:43.023Z,979.17
2023-01-13T05:01:43.090Z,979.21
2023-01-13T05:02:42.993Z,979.15
2023-01-13T05:03:42.975Z,979.25
2023-01-13T05:04:42.996Z,979.24
2023-01-13T05:05:42.959Z,979.19
2023-01-13T05:06:42.952Z,979.15
2023-01-13T05:07:42.951Z,979.14
2023-01-13T05:08:42.912Z,979.17
2023-01-13T05:09:42.905Z,979.14
2023-01-13T05:10:42.904Z,979.25
2023-01-13T05:11:42.895Z,979.27
2023-01-13T05:12:42.897Z,979.27
2023-01-13T05:13:42.870Z,979.25
2023-01-13T05:14:42.842Z,979.27
2023-01-13T05:15:42.912Z,979.38
2023-01-13T05:16:42.849Z,979.33
2023-01-13T05:17:42.823Z,979.38
2023-01-13T05:18:42.805Z,979.53
2023-01-13T05:19:42.814Z,979.27
2023-01-13T05:20:42.804Z,979.37
2023-01-13T05:21:42.794Z,979.43
2023-01-13T05:22:42.785Z,979.32
2023-01-13T05:23:42.774Z,979.34
2023-01-13T05:24:42.758Z,979.42
2023-01-13T05:25:44.284Z,979.38
2023-01-13T05:26:42.763Z,979.34
2023-01-13T05:27:42.727Z,979.31
2023-01-13T05:28:42.716Z,979.35
2023-01-13T05:29:42.719Z,979.33
2023-01-13T05:30:42.687Z,979.33
2023-01-13T05:31:42.689Z,979.32
2023-01-13T05:32:42.661Z,979.33
2023-01-13T05:33:42.679Z,979.35
2023-01-13T05:34:42.648Z,979.30
2023-01-13T05:35:42.653Z,979.29
2023-01-13T05:36:42.644Z,979.23
2023-01-13T05:37:42.615Z,979.26
2023-01-13T05:38:42.607Z,979.34
2023-01-13T05:39:42.598Z,979.34
2023-01-13T05:40:42.578Z,979.29
2023-01-13T05:41:42.576Z,979.15
2023-01-13T05:42:42.568Z,979.26
2023-01-13T05:43:42.557Z,979.27
2023-01-13T05:44:42.540Z,979.21
2023-01-13T05:45:42.759Z,979.22
2023-01-13T05:46:42.584Z,979.28
2023-01-13T05:47:42.516Z,979.25
2023-01-13T05:48:42.517Z,979.21
2023-01-13T05:49:42.488Z,979.26
2023-01-13T05:50:42.472Z,979.17
2023-01-13T05:51:42.463Z,979.16
2023-01-13T05:52:42.458Z,979.11
2023-01-13T05:53:43.221Z,979.16
2023-01-13T05:54:42.427Z,979.09
2023-01-13T05:55:42.446Z,979.07
2023-01-13T05:56:42.461Z,979.08
2023-01-13T05:57:42.405Z,979.09
2023-01-13T05:58:42.392Z,979.06
2023-01-13T05:59:42.379Z,979.10
2023-01-13T06:00:42.377Z,979.10
2023-01-13T06:01:42.351Z,979.08
2023-01-13T06:02:42.404Z,979.12
2023-01-13T06:03:42.333Z,979.11
2023-01-13T06:04:42.343Z,979.11
2023-01-13T06:05:42.323Z,979.34
2023-01-13T06:06:42.303Z,979.14
2023-01-13T06:07:42.303Z,979.19
2023-01-13T06:08:42.293Z,979.21
2023-01-13T06:09:42.281Z,979.21
2023-01-13T06:10:42.362Z,979.18
2023-01-13T06:11:42.242Z,979.24
2023-01-13T06:12:42.255Z,979.19
2023-01-13T06:13:42.236Z,979.14
2023-01-13T06:14:43.045Z,979.24
2023-01-13T06:15:42.225Z,979.26
2023-01-13T06:16:42.206Z,979.23
2023-01-13T06:17:42.184Z,979.28
2023-01-13T06:18:42.175Z,979.32
2023-01-13T06:19:42.196Z,979.26
2023-01-13T06:20:42.163Z,979.26
2023-01-13T06:21:42.148Z,979.35
2023-01-13T06:22:42.136Z,979.26
2023-01-13T06:23:42.146Z,979.32
2023-01-13T06:24:42.135Z,979.34
2023-01-13T06:25:42.114Z,979.31
2023-01-13T06:26:42.118Z,979.37
2023-01-13T06:27:42.085Z,979.35
2023-01-13T06:28:42.063Z,979.28
2023-01-13T06:29:42.057Z,979.33
2023-01-13T06:30:42.529Z,979.37
2023-01-13T06:31:42.100Z,979.31
2023-01-13T06:32:42.027Z,979.37
2023-01-13T06:33:42.037Z,979.37
2023-01-13T06:34:42.033Z,979.35
2023-01-13T06:35:42.012Z,979.35
2023-01-13T06:36:41.987Z,979.33
2023-01-13T06:37:41.979Z,979.38
2023-01-13T06:38:41.961Z,979.16
2023-01-13T06:39:42.669Z,979.27
2023-01-13T06:40:42.289Z,979.26
2023-01-13T06:41:42.945Z,979.22
2023-01-13T06:42:41.939Z,979.29
2023-01-13T06:43:42.664Z,979.18
2023-01-13T06:44:41.919Z,979.19
2023-01-13T06:45:42.890Z,979.25
2023-01-13T06:46:42.062Z,979.21
2023-01-13T06:47:42.613Z,979.16
2023-01-13T06:48:41.876Z,979.19
2023-01-13T06:49:41.908Z,979.15
2023-01-13T06:50:41.871Z,979.19
2023-01-13T06:51:41.960Z,979.20
2023-01-13T06:52:41.835Z,979.18
2023-01-13T06:53:41.805Z,979.22
2023-01-13T06:54:41.822Z,979.21
2023-01-13T06:55:41.824Z,979.12
2023-01-13T06:56:41.781Z,979.16
2023-01-13T06:57:41.772Z,979.19
2023-01-13T06:58:41.762Z,979.19
2023-01-13T06:59:41.741Z,979.16
2023-01-13T07:00:41.796Z,979.12
2023-01-13T07:01:42.044Z,979.17
2023-01-13T07:02:41.750Z,979.14
2023-01-13T07:03:41.724Z,979.13
2023-01-13T07:04:41.708Z,979.16
2023-01-13T07:05:41.692Z,979.05
2023-01-13T07:06:41.673Z,979.12
2023-01-13T07:07:41.667Z,979.10
2023-01-13T07:08:41.684Z,979.06
2023-01-13T07:09:41.633Z,979.21
2023-01-13T07:10:41.621Z,979.09
2023-01-13T07:11:41.634Z,979.13
2023-01-13T07:12:41.614Z,979.13
2023-01-13T07:13:41.666Z,979.14
2023-01-13T07:14:41.584Z,979.11
2023-01-13T07:15:41.583Z,979.05
2023-01-13T07:16:41.627Z,979.09
2023-01-13T07:17:41.558Z,979.15
2023-01-13T07:18:41.551Z,979.09
2023-01-13T07:19:41.543Z,979.04
2023-01-13T07:20:41.518Z,979.13
2023-01-13T07:21:41.518Z,979.13
2023-01-13T07:22:41.506Z,979.08
2023-01-13T07:23:41.499Z,979.04
2023-01-13T07:24:41.480Z,979.08
2023-01-13T07:25:41.476Z,979.01
2023-01-13T07:26:41.472Z,979.09
2023-01-13T07:27:41.455Z,978.92
2023-01-13T07:28:41.458Z,979.07
2023-01-13T07:29:41.426Z,979.13
2023-01-13T07:30:41.426Z,979.23
2023-01-13T07:31:41.468Z,979.25
2023-01-13T07:32:41.402Z,979.30
2023-01-13T07:33:41.388Z,979.21
2023-01-13T07:34:41.387Z,979.22
2023-01-13T07:35:41.389Z,979.32
2023-01-13T07:36:41.358Z,979.31
2023-01-13T07:37:41.341Z,979.29
2023-01-13T07:38:41.331Z,979.27
2023-01-13T07:39:41.320Z,979.25
2023-01-13T07:40:41.321Z,979.17
2023-01-13T07:41:41.307Z,979.21
2023-01-13T07:42:41.298Z,979.17
2023-01-13T07:43:41.311Z,979.15
2023-01-13T07:44:41.284Z,979.19
2023-01-13T07:45:41.289Z,979.11
2023-01-13T07:46:41.266Z,979.12
2023-01-13T07:47:41.219Z,979.08
2023-01-13T07:48:41.234Z,979.07
2023-01-13T07:49:41.218Z,979.14
2023-01-13T07:50:43.997Z,979.22
2023-01-13T07:51:41.200Z,979.21
2023-01-13T07:52:41.190Z,979.21
2023-01-13T07:53:41.175Z,979.35
2023-01-13T07:54:41.439Z,979.15
2023-01-13T07:55:41.153Z,979.22
2023-01-13T07:56:41.143Z,979.22
2023-01-13T07:57:41.130Z,979.28
2023-01-13T07:58:41.132Z,979.16
2023-01-13T07:59:41.122Z,979.24
2023-01-13T08:00:41.103Z,979.32
2023-01-13T08:01:41.268Z,979.33
2023-01-13T08:02:41.142Z,979.30
2023-01-13T08:03:41.074Z,979.26
2023-01-13T08:04:41.066Z,979.24
2023-01-13T08:05:41.042Z,979.25
2023-01-13T08:06:41.040Z,979.34
2023-01-13T08:07:41.075Z,979.27
2023-01-13T08:08:41.042Z,979.29
2023-01-13T08:09:41.028Z,979.36
2023-01-13T08:10:40.996Z,979.41
2023-01-13T08:11:40.991Z,979.30
2023-01-13T08:12:40.996Z,979.43
2023-01-13T08:13:41.964Z,979.39
2023-01-13T08:14:40.949Z,979.43
2023-01-13T08:15:40.926Z,979.41
2023-01-13T08:16:40.954Z,979.47
2023-01-13T08:17:40.955Z,979.49
2023-01-13T08:18:40.903Z,979.52
2023-01-13T08:19:40.895Z,979.58
2023-01-13T08:20:40.888Z,979.53
2023-01-13T08:21:40.890Z,979.54
2023-01-13T08:22:40.876Z,979.58
2023-01-13T08:23:40.865Z,979.60
2023-01-13T08:24:40.870Z,979.64
2023-01-13T08:25:40.851Z,979.67
2023-01-13T08:26:40.826Z,979.61
2023-01-13T08:27:40.834Z,979.58
2023-01-13T08:28:40.829Z,979.68
2023-01-13T08:29:40.804Z,979.67
2023-01-13T08:30:40.838Z,979.76
2023-01-13T08:31:40.818Z,979.77
2023-01-13T08:32:41.125Z,979.87
2023-01-13T08:33:40.744Z,979.70
2023-01-13T08:34:41.467Z,979.78
2023-01-13T08:35:40.748Z,979.78
2023-01-13T08:36:40.729Z,979.86
2023-01-13T08:37:40.698Z,979.86
2023-01-13T08:38:40.703Z,979.77
2023-01-13T08:39:40.679Z,979.78
2023-01-13T08:40:40.681Z,979.87
2023-01-13T08:41:40.669Z,979.81
2023-01-13T08:42:40.652Z,979.75
2023-01-13T08:43:41.118Z,979.83
2023-01-13T08:44:40.641Z,979.90
2023-01-13T08:45:40.620Z,979.99
2023-01-13T08:46:40.601Z,979.98
2023-01-13T08:47:40.600Z,980.07
2023-01-13T08:48:40.587Z,980.15
2023-01-13T08:49:40.581Z,980.18
2023-01-13T08:50:40.562Z,980.12
2023-01-13T08:51:40.563Z,980.16
2023-01-13T08:52:40.548Z,980.24
2023-01-13T08:53:40.532Z,980.20
2023-01-13T08:54:40.534Z,980.20
2023-01-13T08:55:40.502Z,980.18
2023-01-13T08:56:40.548Z,980.34
2023-01-13T08:57:40.494Z,980.31
2023-01-13T08:58:40.493Z,980.28
2023-01-13T08:59:40.482Z,980.45
2023-01-13T09:00:40.460Z,980.44
2023-01-13T09:01:40.523Z,980.48
2023-01-13T09:02:40.433Z,980.53
2023-01-13T09:03:40.425Z,980.78
2023-01-13T09:04:40.552Z,980.63
2023-01-13T09:05:40.404Z,980.78
2023-01-13T09:06:40.504Z,980.84
2023-01-13T09:07:40.404Z,980.86
2023-01-13T09:08:40.385Z,980.96
2023-01-13T09:09:40.371Z,980.87
2023-01-13T09:10:40.418Z,980.91
2023-01-13T09:11:40.368Z,981.01
2023-01-13T09:12:40.334Z,981.01
2023-01-13T09:13:40.336Z,981.02
2023-01-13T09:14:40.349Z,981.11
2023-01-13T09:15:40.486Z,981.02
2023-01-13T09:16:40.296Z,981.04
2023-01-13T09:17:40.290Z,980.97
2023-01-13T09:18:40.277Z,980.93
2023-01-13T09:19:40.288Z,980.96
2023-01-13T09:20:40.244Z,981.02
2023-01-13T09:21:40.225Z,981.07
2023-01-13T09:22:40.290Z,981.00
2023-01-13T09:23:40.206Z,980.97
2023-01-13T09:24:40.208Z,980.90
2023-01-13T09:25:40.210Z,981.01
2023-01-13T09:26:40.291Z,981.03
2023-01-13T09:27:40.180Z,980.94
2023-01-13T09:28:40.166Z,980.90
2023-01-13T09:29:40.137Z,980.95
2023-01-13T09:30:40.178Z,980.92
2023-01-13T09:31:41.329Z,980.96
2023-01-13T09:32:41.070Z,980.96
2023-01-13T09:33:40.107Z,980.98
2023-01-13T09:34:40.101Z,981.05
2023-01-13T09:35:40.101Z,981.01
2023-01-13T09:36:40.077Z,981.05
2023-01-13T09:37:40.093Z,980.99
2023-01-13T09:38:40.061Z,981.04
2023-01-13T09:39:40.047Z,981.12
2023-01-13T09:40:40.037Z,981.01
2023-01-13T09:41:40.010Z,981.01
2023-01-13T09:42:40.006Z,981.01
2023-01-13T09:43:39.993Z,981.06
2023-01-13T09:44:40.015Z,981.15
2023-01-13T09:45:39.979Z,981.05
2023-01-13T09:46:40.041Z,981.14
2023-01-13T09:47:39.950Z,981.17
2023-01-13T09:48:39.943Z,981.12
2023-01-13T09:49:39.951Z,981.12
2023-01-13T09:50:39.922Z,981.09
2023-01-13T09:51:39.979Z,981.11
2023-01-13T09:52:39.900Z,981.16
2023-01-13T09:53:39.901Z,981.07
2023-01-13T09:54:39.902Z,981.10
2023-01-13T09:55:39.870Z,981.16
2023-01-13T09:56:39.864Z,981.24
2023-01-13T09:57:39.850Z,981.14
2023-01-13T09:58:39.852Z,981.19
2023-01-13T09:59:39.842Z,981.18
2023-01-13T10:00:39.829Z,981.26
2023-01-13T10:01:39.823Z,981.15
2023-01-13T10:02:39.809Z,981.22
2023-01-13T10:03:39.864Z,981.18
2023-01-13T10:04:39.811Z,981.31
2023-01-13T10:05:39.777Z,981.41
2023-01-13T10:06:39.763Z,981.44
2023-01-13T10:07:39.743Z,981.40
2023-01-13T10:08:39.751Z,981.41
2023-01-13T10:09:39.749Z,981.49
2023-01-13T10:10:39.703Z,981.47
2023-01-13T10:11:39.705Z,981.37
2023-01-13T10:12:39.704Z,981.34
2023-01-13T10:13:39.678Z,981.26
2023-01-13T10:14:39.680Z,981.38
2023-01-13T10:15:39.686Z,981.32
2023-01-13T10:16:39.645Z,981.28
2023-01-13T10:17:39.652Z,981.37
2023-01-13T10:18:39.626Z,981.35
2023-01-13T10:19:39.606Z,981.28
2023-01-13T10:20:39.620Z,981.39
2023-01-13T10:21:39.614Z,981.33
2023-01-13T10:22:39.612Z,981.51
2023-01-13T10:23:39.578Z,981.39
2023-01-13T10:24:39.578Z,981.33
2023-01-13T10:25:39.554Z,981.26
2023-01-13T10:26:39.577Z,981.23
2023-01-13T10:27:39.550Z,981.27
2023-01-13T10:28:39.517Z,981.35
2023-01-13T10:29:39.508Z,981.28
2023-01-13T10:30:39.508Z,981.22
2023-01-13T10:31:39.561Z,981.31
2023-01-13T10:32:39.491Z,981.35
2023-01-13T10:33:39.487Z,981.31
2023-01-13T10:34:39.448Z,981.30
2023-01-13T10:35:39.452Z,981.32
2023-01-13T10:36:39.458Z,981.33
2023-01-13T10:37:39.428Z,981.37
2023-01-13T10:38:40.101Z,981.35
2023-01-13T10:39:39.443Z,981.36
2023-01-13T10:40:40.396Z,981.44
2023-01-13T10:41:39.388Z,981.44
2023-01-13T10:42:39.452Z,981.46
2023-01-13T10:43:39.392Z,981.48
2023-01-13T10:44:40.084Z,981.45
2023-01-13T10:45:39.348Z,981.48
2023-01-13T10:46:39.936Z,981.52
2023-01-13T10:47:39.329Z,981.53
2023-01-13T10:48:40.001Z,981.52
2023-01-13T10:49:39.318Z,981.50
2023-01-13T10:50:39.351Z,981.57
2023-01-13T10:51:39.271Z,981.51
2023-01-13T10:52:39.280Z,981.56
2023-01-13T10:53:39.240Z,981.69
2023-01-13T10:54:39.262Z,981.72
2023-01-13T10:55:39.230Z,981.73
2023-01-13T10:56:39.215Z,981.59
2023-01-13T10:57:39.219Z,981.74
2023-01-13T10:58:39.234Z,981.82
2023-01-13T10:59:39.201Z,981.67
2023-01-13T11:00:39.198Z,981.74
2023-01-13T11:01:39.216Z,981.57
2023-01-13T11:02:39.209Z,981.65
2023-01-13T11:03:39.149Z,981.65
2023-01-13T11:04:39.191Z,981.54
2023-01-13T11:05:39.140Z,981.44
2023-01-13T11:06:39.131Z,981.56
2023-01-13T11:07:39.120Z,981.56
2023-01-13T11:08:39.099Z,981.47
2023-01-13T11:09:39.088Z,981.86
2023-01-13T11:10:39.085Z,981.64
2023-01-13T11:11:39.077Z,981.63
2023-01-13T11:12:39.066Z,981.66
2023-01-13T11:13:39.036Z,981.67
2023-01-13T11:14:39.023Z,981.64
2023-01-13T11:15:39.034Z,981.77
2023-01-13T11:16:42.649Z,981.69
2023-01-13T11:17:39.986Z,981.69
2023-01-13T11:18:38.984Z,981.66
2023-01-13T11:19:38.974Z,981.63
2023-01-13T11:20:39.017Z,981.64
2023-01-13T11:21:38.965Z,981.68
2023-01-13T11:22:38.970Z,981.68
2023-01-13T11:23:38.941Z,981.89
2023-01-13T11:24:38.925Z,981.76
2023-01-13T11:25:38.918Z,981.87
2023-01-13T11:26:38.917Z,981.72
2023-01-13T11:27:38.920Z,981.77
2023-01-13T11:28:38.880Z,981.86
2023-01-13T11:29:38.869Z,981.88
2023-01-13T11:30:38.880Z,981.89
2023-01-13T11:31:38.876Z,981.89
2023-01-13T11:32:38.847Z,981.98
2023-01-13T11:33:38.839Z,981.91
2023-01-13T11:34:38.817Z,981.92
2023-01-13T11:35:38.798Z,981.86
2023-01-13T11:36:38.822Z,981.95
2023-01-13T11:37:38.778Z,981.87
2023-01-13T11:38:38.774Z,981.93
2023-01-13T11:39:38.769Z,981.88
2023-01-13T11:40:38.769Z,981.90
2023-01-13T11:41:38.757Z,981.94
2023-01-13T11:42:38.788Z,982.04
2023-01-13T11:43:39.408Z,981.99
2023-01-13T11:44:38.742Z,981.84
2023-01-13T11:45:38.713Z,981.77
2023-01-13T11:46:38.726Z,981.85
2023-01-13T11:47:38.675Z,981.80
2023-01-13T11:48:38.670Z,981.84
2023-01-13T11:49:38.682Z,981.81
2023-01-13T11:50:38.641Z,981.88
2023-01-13T11:51:39.419Z,981.84
2023-01-13T11:52:38.656Z,981.78
2023-01-13T11:53:38.735Z,981.78
2023-01-13T11:54:38.653Z,981.85
2023-01-13T11:55:39.588Z,981.79
2023-01-13T11:56:38.620Z,981.84
2023-01-13T11:57:39.583Z,981.75
2023-01-13T11:58:49.708Z,981.80
2023-01-13T11:59:40.263Z,981.82
2023-01-13T12:00:38.549Z,981.76
2023-01-13T12:01:39.452Z,981.72
2023-01-13T12:02:38.558Z,981.73
2023-01-13T12:03:38.628Z,981.46
2023-01-13T12:04:38.494Z,981.89
2023-01-13T12:05:38.525Z,981.51
2023-01-13T12:06:39.491Z,981.35
2023-01-13T12:07:38.483Z,981.29
2023-01-13T12:08:38.462Z,981.33
2023-01-13T12:09:38.507Z,981.42
2023-01-13T12:10:38.457Z,981.41
2023-01-13T12:11:38.441Z,981.45
2023-01-13T12:12:39.133Z,981.50
2023-01-13T12:13:38.439Z,981.61
2023-01-13T12:14:38.394Z,981.53
2023-01-13T12:15:38.384Z,981.49
2023-01-13T12:16:38.387Z,981.49
2023-01-13T12:17:38.388Z,981.57
2023-01-13T12:18:38.355Z,981.52
2023-01-13T12:19:38.346Z,981.45
2023-01-13T12:20:38.825Z,981.63
2023-01-13T12:21:38.330Z,981.72
2023-01-13T12:22:38.323Z,981.56
2023-01-13T12:23:38.304Z,981.61
2023-01-13T12:24:38.318Z,981.73
2023-01-13T12:25:38.276Z,981.63
2023-01-13T12:26:38.275Z,981.57
2023-01-13T12:27:38.258Z,981.59
2023-01-13T12:28:38.322Z,981.66